sensor_id;sensor_type;location;lat;lon;timestamp;P1;durP1;ratioP1;P2;durP2;ratioP2
73337;SDS011;61575;49.908;35.556;2023-06-19T00:02:44;6.23;;;2.93;;
73337;SDS011;61575;49.908;35.556;2023-06-19T00:05:46;5.68;;;2.78;;
73337;SDS011;61575;49.908;35.556;2023-06-19T00:08:48;5.43;;;2.83;;
73337;SDS011;61575;49.908;35.556;2023-06-19T00:11:50;6.10;;;2.78;;
73337;SDS011;61575;49.908;35.556;2023-06-19T00:14:52;5.83;;;2.80;;
73337;SDS011;61575;49.908;35.556;2023-06-19T00:17:53;7.10;;;3.33;;
73337;SDS011;61575;49.908;35.556;2023-06-19T00:20:55;6.35;;;3.25;;
73337;SDS011;61575;49.908;35.556;2023-06-19T00:23:58;6.75;;;3.42;;
73337;SDS011;61575;49.908;35.556;2023-06-19T00:27:00;5.63;;;2.90;;
73337;SDS011;61575;49.908;35.556;2023-06-19T00:30:05;6.97;;;3.08;;
73337;SDS011;61575;49.908;35.556;2023-06-19T00:33:07;5.07;;;2.63;;
73337;SDS011;61575;49.908;35.556;2023-06-19T00:39:12;6.63;;;3.20;;
73337;SDS011;61575;49.908;35.556;2023-06-19T00:42:14;6.95;;;3.30;;
73337;SDS011;61575;49.908;35.556;2023-06-19T00:45:16;7.40;;;3.20;;
73337;SDS011;61575;49.908;35.556;2023-06-19T00:48:18;5.68;;;2.97;;
73337;SDS011;61575;49.908;35.556;2023-06-19T00:51:19;7.18;;;3.00;;
73337;SDS011;61575;49.908;35.556;2023-06-19T00:54:22;6.05;;;3.08;;
73337;SDS011;61575;49.908;35.556;2023-06-19T00:57:24;5.55;;;2.85;;
73337;SDS011;61575;49.908;35.556;2023-06-19T01:00:26;5.28;;;2.88;;
73337;SDS011;61575;49.908;35.556;2023-06-19T01:03:30;5.80;;;2.85;;
73337;SDS011;61575;49.908;35.556;2023-06-19T01:06:36;5.05;;;2.70;;
73337;SDS011;61575;49.908;35.556;2023-06-19T01:09:47;5.97;;;2.70;;
73337;SDS011;61575;49.908;35.556;2023-06-19T01:13:00;5.80;;;2.95;;
73337;SDS011;61575;49.908;35.556;2023-06-19T01:16:06;5.72;;;2.60;;
73337;SDS011;61575;49.908;35.556;2023-06-19T01:19:09;8.65;;;3.10;;
73337;SDS011;61575;49.908;35.556;2023-06-19T01:22:27;6.28;;;2.70;;
73337;SDS011;61575;49.908;35.556;2023-06-19T01:25:29;8.10;;;3.10;;
73337;SDS011;61575;49.908;35.556;2023-06-19T01:28:31;6.28;;;2.78;;
73337;SDS011;61575;49.908;35.556;2023-06-19T01:34:50;5.50;;;2.83;;
73337;SDS011;61575;49.908;35.556;2023-06-19T01:37:56;6.47;;;3.03;;
73337;SDS011;61575;49.908;35.556;2023-06-19T01:41:00;5.80;;;2.60;;
73337;SDS011;61575;49.908;35.556;2023-06-19T01:44:04;8.20;;;3.00;;
73337;SDS011;61575;49.908;35.556;2023-06-19T01:50:10;5.85;;;3.10;;
73337;SDS011;61575;49.908;35.556;2023-06-19T01:53:12;6.25;;;3.22;;
73337;SDS011;61575;49.908;35.556;2023-06-19T01:56:15;7.68;;;3.45;;
73337;SDS011;61575;49.908;35.556;2023-06-19T01:59:17;6.68;;;3.08;;
73337;SDS011;61575;49.908;35.556;2023-06-19T02:02:18;8.13;;;3.00;;
73337;SDS011;61575;49.908;35.556;2023-06-19T02:05:23;6.35;;;3.03;;
73337;SDS011;61575;49.908;35.556;2023-06-19T02:08:25;6.17;;;2.97;;
73337;SDS011;61575;49.908;35.556;2023-06-19T02:11:27;7.03;;;2.92;;
73337;SDS011;61575;49.908;35.556;2023-06-19T02:14:29;6.43;;;3.13;;
73337;SDS011;61575;49.908;35.556;2023-06-19T02:17:31;7.07;;;3.08;;
73337;SDS011;61575;49.908;35.556;2023-06-19T02:20:33;8.45;;;3.17;;
73337;SDS011;61575;49.908;35.556;2023-06-19T02:23:35;8.95;;;3.10;;
73337;SDS011;61575;49.908;35.556;2023-06-19T02:26:37;6.20;;;3.07;;
73337;SDS011;61575;49.908;35.556;2023-06-19T02:29:39;7.60;;;3.30;;
73337;SDS011;61575;49.908;35.556;2023-06-19T02:32:41;7.93;;;3.10;;
73337;SDS011;61575;49.908;35.556;2023-06-19T02:35:43;7.18;;;3.13;;
73337;SDS011;61575;49.908;35.556;2023-06-19T02:38:49;6.07;;;3.00;;
73337;SDS011;61575;49.908;35.556;2023-06-19T02:41:50;8.63;;;3.13;;
73337;SDS011;61575;49.908;35.556;2023-06-19T02:44:52;6.30;;;2.97;;
73337;SDS011;61575;49.908;35.556;2023-06-19T02:47:54;5.30;;;3.03;;
73337;SDS011;61575;49.908;35.556;2023-06-19T02:50:56;5.95;;;2.80;;
73337;SDS011;61575;49.908;35.556;2023-06-19T02:53:58;6.63;;;2.60;;
73337;SDS011;61575;49.908;35.556;2023-06-19T02:57:00;6.65;;;3.03;;
73337;SDS011;61575;49.908;35.556;2023-06-19T03:00:02;5.40;;;2.63;;
73337;SDS011;61575;49.908;35.556;2023-06-19T03:03:07;4.90;;;2.40;;
73337;SDS011;61575;49.908;35.556;2023-06-19T03:06:09;4.70;;;2.50;;
73337;SDS011;61575;49.908;35.556;2023-06-19T03:09:11;5.63;;;2.78;;
73337;SDS011;61575;49.908;35.556;2023-06-19T03:12:14;5.43;;;2.75;;
73337;SDS011;61575;49.908;35.556;2023-06-19T03:15:16;6.47;;;2.73;;
73337;SDS011;61575;49.908;35.556;2023-06-19T03:18:21;7.47;;;2.60;;
73337;SDS011;61575;49.908;35.556;2023-06-19T03:21:24;6.03;;;2.55;;
73337;SDS011;61575;49.908;35.556;2023-06-19T03:24:26;6.57;;;2.47;;
73337;SDS011;61575;49.908;35.556;2023-06-19T03:27:39;5.47;;;2.55;;
73337;SDS011;61575;49.908;35.556;2023-06-19T03:30:41;4.97;;;2.55;;
73337;SDS011;61575;49.908;35.556;2023-06-19T03:33:43;4.88;;;2.35;;
73337;SDS011;61575;49.908;35.556;2023-06-19T03:36:46;4.45;;;2.25;;
73337;SDS011;61575;49.908;35.556;2023-06-19T03:39:47;4.82;;;2.25;;
73337;SDS011;61575;49.908;35.556;2023-06-19T03:42:49;6.32;;;2.50;;
73337;SDS011;61575;49.908;35.556;2023-06-19T03:45:52;6.22;;;2.65;;
73337;SDS011;61575;49.908;35.556;2023-06-19T03:48:55;4.10;;;2.40;;
73337;SDS011;61575;49.908;35.556;2023-06-19T03:51:56;4.20;;;2.20;;
73337;SDS011;61575;49.908;35.556;2023-06-19T03:54:58;4.43;;;2.10;;
73337;SDS011;61575;49.908;35.556;2023-06-19T03:58:00;4.72;;;2.13;;
73337;SDS011;61575;49.908;35.556;2023-06-19T04:01:02;4.68;;;2.05;;
73337;SDS011;61575;49.908;35.556;2023-06-19T04:04:06;4.85;;;1.90;;
73337;SDS011;61575;49.908;35.556;2023-06-19T04:07:08;4.68;;;2.10;;
73337;SDS011;61575;49.908;35.556;2023-06-19T04:10:15;5.53;;;2.20;;
73337;SDS011;61575;49.908;35.556;2023-06-19T04:16:19;5.32;;;2.28;;
73337;SDS011;61575;49.908;35.556;2023-06-19T04:19:22;3.92;;;1.80;;
73337;SDS011;61575;49.908;35.556;2023-06-19T04:22:23;4.80;;;2.13;;
73337;SDS011;61575;49.908;35.556;2023-06-19T04:25:26;4.95;;;1.85;;
73337;SDS011;61575;49.908;35.556;2023-06-19T04:28:27;7.55;;;2.50;;
73337;SDS011;61575;49.908;35.556;2023-06-19T04:31:29;5.97;;;2.25;;
73337;SDS011;61575;49.908;35.556;2023-06-19T04:37:34;7.95;;;2.30;;
73337;SDS011;61575;49.908;35.556;2023-06-19T04:40:36;5.28;;;1.90;;
73337;SDS011;61575;49.908;35.556;2023-06-19T04:43:37;6.50;;;1.80;;
73337;SDS011;61575;49.908;35.556;2023-06-19T04:46:43;4.60;;;1.92;;
73337;SDS011;61575;49.908;35.556;2023-06-19T04:49:48;3.72;;;1.75;;
73337;SDS011;61575;49.908;35.556;2023-06-19T04:52:50;4.18;;;1.70;;
73337;SDS011;61575;49.908;35.556;2023-06-19T04:55:53;3.22;;;1.40;;
73337;SDS011;61575;49.908;35.556;2023-06-19T04:58:56;5.05;;;1.80;;
73337;SDS011;61575;49.908;35.556;2023-06-19T05:02:01;3.97;;;1.70;;
73337;SDS011;61575;49.908;35.556;2023-06-19T05:05:03;4.90;;;1.70;;
73337;SDS011;61575;49.908;35.556;2023-06-19T05:08:05;3.80;;;1.65;;
73337;SDS011;61575;49.908;35.556;2023-06-19T05:11:07;6.18;;;1.83;;
73337;SDS011;61575;49.908;35.556;2023-06-19T05:14:09;4.32;;;1.58;;
73337;SDS011;61575;49.908;35.556;2023-06-19T05:17:10;3.88;;;1.50;;
73337;SDS011;61575;49.908;35.556;2023-06-19T05:20:12;4.53;;;1.40;;
73337;SDS011;61575;49.908;35.556;2023-06-19T05:23:14;2.67;;;1.38;;
73337;SDS011;61575;49.908;35.556;2023-06-19T05:26:16;3.55;;;1.55;;
73337;SDS011;61575;49.908;35.556;2023-06-19T05:29:18;3.72;;;1.67;;
73337;SDS011;61575;49.908;35.556;2023-06-19T05:32:20;4.10;;;1.50;;
73337;SDS011;61575;49.908;35.556;2023-06-19T05:35:22;4.18;;;1.33;;
73337;SDS011;61575;49.908;35.556;2023-06-19T05:38:24;4.90;;;1.60;;
73337;SDS011;61575;49.908;35.556;2023-06-19T05:41:27;2.95;;;1.33;;
73337;SDS011;61575;49.908;35.556;2023-06-19T05:44:29;2.97;;;1.33;;
73337;SDS011;61575;49.908;35.556;2023-06-19T05:47:31;2.47;;;1.20;;
73337;SDS011;61575;49.908;35.556;2023-06-19T05:50:33;2.90;;;1.20;;
73337;SDS011;61575;49.908;35.556;2023-06-19T05:53:35;3.78;;;1.20;;
73337;SDS011;61575;49.908;35.556;2023-06-19T05:56:36;3.88;;;1.23;;
73337;SDS011;61575;49.908;35.556;2023-06-19T05:59:38;2.67;;;1.20;;
73337;SDS011;61575;49.908;35.556;2023-06-19T06:02:40;3.05;;;1.48;;
73337;SDS011;61575;49.908;35.556;2023-06-19T06:05:42;2.58;;;1.10;;
73337;SDS011;61575;49.908;35.556;2023-06-19T06:11:46;3.43;;;1.10;;
73337;SDS011;61575;49.908;35.556;2023-06-19T06:17:50;3.72;;;1.33;;
73337;SDS011;61575;49.908;35.556;2023-06-19T06:20:52;2.67;;;1.27;;
73337;SDS011;61575;49.908;35.556;2023-06-19T06:26:56;2.58;;;1.27;;
73337;SDS011;61575;49.908;35.556;2023-06-19T06:30:00;4.43;;;1.30;;
73337;SDS011;61575;49.908;35.556;2023-06-19T06:33:02;3.60;;;1.27;;
73337;SDS011;61575;49.908;35.556;2023-06-19T06:36:04;2.95;;;1.17;;
73337;SDS011;61575;49.908;35.556;2023-06-19T06:39:09;3.90;;;1.30;;
73337;SDS011;61575;49.908;35.556;2023-06-19T06:42:12;2.83;;;1.20;;
73337;SDS011;61575;49.908;35.556;2023-06-19T06:45:14;2.10;;;0.95;;
73337;SDS011;61575;49.908;35.556;2023-06-19T06:48:16;2.92;;;1.30;;
73337;SDS011;61575;49.908;35.556;2023-06-19T06:51:18;4.38;;;1.30;;
73337;SDS011;61575;49.908;35.556;2023-06-19T06:54:20;3.15;;;1.30;;
73337;SDS011;61575;49.908;35.556;2023-06-19T06:57:22;3.15;;;1.48;;
73337;SDS011;61575;49.908;35.556;2023-06-19T07:00:23;1.80;;;1.00;;
73337;SDS011;61575;49.908;35.556;2023-06-19T07:03:26;2.72;;;1.20;;
73337;SDS011;61575;49.908;35.556;2023-06-19T07:06:30;2.20;;;1.20;;
73337;SDS011;61575;49.908;35.556;2023-06-19T07:09:32;3.08;;;1.10;;
73337;SDS011;61575;49.908;35.556;2023-06-19T07:12:34;3.60;;;1.40;;
73337;SDS011;61575;49.908;35.556;2023-06-19T07:15:37;2.47;;;1.20;;
73337;SDS011;61575;49.908;35.556;2023-06-19T07:21:42;3.45;;;1.35;;
73337;SDS011;61575;49.908;35.556;2023-06-19T07:24:45;3.00;;;1.13;;
73337;SDS011;61575;49.908;35.556;2023-06-19T07:30:48;2.80;;;1.33;;
73337;SDS011;61575;49.908;35.556;2023-06-19T07:33:50;2.67;;;1.20;;
73337;SDS011;61575;49.908;35.556;2023-06-19T07:39:54;3.03;;;1.27;;
73337;SDS011;61575;49.908;35.556;2023-06-19T07:42:57;3.20;;;1.27;;
73337;SDS011;61575;49.908;35.556;2023-06-19T07:45:59;3.22;;;1.30;;
73337;SDS011;61575;49.908;35.556;2023-06-19T07:49:01;3.25;;;1.20;;
73337;SDS011;61575;49.908;35.556;2023-06-19T07:52:03;3.25;;;1.17;;
73337;SDS011;61575;49.908;35.556;2023-06-19T07:55:06;2.85;;;1.23;;
73337;SDS011;61575;49.908;35.556;2023-06-19T07:58:08;3.15;;;1.20;;
73337;SDS011;61575;49.908;35.556;2023-06-19T08:01:10;2.58;;;1.10;;
73337;SDS011;61575;49.908;35.556;2023-06-19T08:04:12;3.90;;;1.40;;
73337;SDS011;61575;49.908;35.556;2023-06-19T08:10:16;4.78;;;1.45;;
73337;SDS011;61575;49.908;35.556;2023-06-19T08:13:18;6.47;;;1.52;;
73337;SDS011;61575;49.908;35.556;2023-06-19T08:16:20;2.53;;;1.20;;
73337;SDS011;61575;49.908;35.556;2023-06-19T08:19:22;3.30;;;1.10;;
73337;SDS011;61575;49.908;35.556;2023-06-19T08:22:24;2.67;;;1.13;;
73337;SDS011;61575;49.908;35.556;2023-06-19T08:25:26;3.00;;;1.27;;
73337;SDS011;61575;49.908;35.556;2023-06-19T08:28:28;3.45;;;1.63;;
73337;SDS011;61575;49.908;35.556;2023-06-19T08:31:30;3.78;;;1.60;;
73337;SDS011;61575;49.908;35.556;2023-06-19T08:34:32;3.22;;;1.30;;
73337;SDS011;61575;49.908;35.556;2023-06-19T08:37:34;6.13;;;1.60;;
73337;SDS011;61575;49.908;35.556;2023-06-19T08:40:36;2.55;;;1.25;;
73337;SDS011;61575;49.908;35.556;2023-06-19T08:43:38;3.55;;;1.30;;
73337;SDS011;61575;49.908;35.556;2023-06-19T08:46:42;3.15;;;1.15;;
73337;SDS011;61575;49.908;35.556;2023-06-19T08:49:44;3.95;;;1.50;;
73337;SDS011;61575;49.908;35.556;2023-06-19T08:52:46;4.35;;;1.92;;
73337;SDS011;61575;49.908;35.556;2023-06-19T08:58:53;3.33;;;1.38;;
73337;SDS011;61575;49.908;35.556;2023-06-19T09:01:55;2.65;;;1.23;;
73337;SDS011;61575;49.908;35.556;2023-06-19T09:05:40;2.60;;;1.13;;
73337;SDS011;61575;49.908;35.556;2023-06-19T09:08:33;4.20;;;1.50;;
73337;SDS011;61575;49.908;35.556;2023-06-19T09:11:35;3.03;;;1.30;;
73337;SDS011;61575;49.908;35.556;2023-06-19T09:14:40;3.25;;;1.40;;
73337;SDS011;61575;49.908;35.556;2023-06-19T09:17:43;3.50;;;1.20;;
73337;SDS011;61575;49.908;35.556;2023-06-19T09:20:52;2.60;;;1.20;;
73337;SDS011;61575;49.908;35.556;2023-06-19T09:24:01;2.80;;;1.20;;
73337;SDS011;61575;49.908;35.556;2023-06-19T09:27:08;4.80;;;1.40;;
73337;SDS011;61575;49.908;35.556;2023-06-19T09:30:16;3.47;;;1.30;;
73337;SDS011;61575;49.908;35.556;2023-06-19T09:33:19;2.22;;;1.10;;
73337;SDS011;61575;49.908;35.556;2023-06-19T09:36:23;4.13;;;1.35;;
73337;SDS011;61575;49.908;35.556;2023-06-19T09:39:25;3.33;;;1.42;;
73337;SDS011;61575;49.908;35.556;2023-06-19T09:42:34;3.10;;;1.30;;
73337;SDS011;61575;49.908;35.556;2023-06-19T09:45:36;3.35;;;1.50;;
73337;SDS011;61575;49.908;35.556;2023-06-19T09:48:42;3.10;;;1.30;;
73337;SDS011;61575;49.908;35.556;2023-06-19T09:51:46;4.10;;;1.70;;
73337;SDS011;61575;49.908;35.556;2023-06-19T09:54:52;3.95;;;1.30;;
73337;SDS011;61575;49.908;35.556;2023-06-19T09:57:55;3.25;;;1.33;;
73337;SDS011;61575;49.908;35.556;2023-06-19T10:00:57;3.60;;;1.58;;
73337;SDS011;61575;49.908;35.556;2023-06-19T10:04:04;2.72;;;1.30;;
73337;SDS011;61575;49.908;35.556;2023-06-19T10:07:19;2.85;;;1.30;;
73337;SDS011;61575;49.908;35.556;2023-06-19T10:10:24;3.88;;;1.40;;
73337;SDS011;61575;49.908;35.556;2023-06-19T10:13:33;2.83;;;1.25;;
73337;SDS011;61575;49.908;35.556;2023-06-19T10:16:36;3.25;;;1.40;;
73337;SDS011;61575;49.908;35.556;2023-06-19T10:19:38;5.55;;;1.15;;
73337;SDS011;61575;49.908;35.556;2023-06-19T10:22:52;4.90;;;1.35;;
73337;SDS011;61575;49.908;35.556;2023-06-19T10:25:58;3.28;;;1.40;;
73337;SDS011;61575;49.908;35.556;2023-06-19T10:29:14;2.58;;;1.10;;
73337;SDS011;61575;49.908;35.556;2023-06-19T10:32:20;3.50;;;1.48;;
73337;SDS011;61575;49.908;35.556;2023-06-19T10:35:22;3.95;;;1.30;;
73337;SDS011;61575;49.908;35.556;2023-06-19T10:38:26;3.38;;;1.30;;
73337;SDS011;61575;49.908;35.556;2023-06-19T10:41:29;3.05;;;1.13;;
73337;SDS011;61575;49.908;35.556;2023-06-19T10:44:32;3.05;;;1.40;;
73337;SDS011;61575;49.908;35.556;2023-06-19T10:47:34;2.85;;;1.20;;
73337;SDS011;61575;49.908;35.556;2023-06-19T10:50:37;2.83;;;1.20;;
73337;SDS011;61575;49.908;35.556;2023-06-19T10:53:43;4.88;;;1.40;;
73337;SDS011;61575;49.908;35.556;2023-06-19T10:56:45;2.97;;;1.10;;
73337;SDS011;61575;49.908;35.556;2023-06-19T10:59:50;2.72;;;1.20;;
73337;SDS011;61575;49.908;35.556;2023-06-19T11:02:53;2.65;;;1.10;;
73337;SDS011;61575;49.908;35.556;2023-06-19T11:05:55;4.65;;;1.10;;
73337;SDS011;61575;49.908;35.556;2023-06-19T11:08:57;2.80;;;1.20;;
73337;SDS011;61575;49.908;35.556;2023-06-19T11:11:59;2.47;;;1.20;;
73337;SDS011;61575;49.908;35.556;2023-06-19T11:15:03;3.58;;;1.20;;
73337;SDS011;61575;49.908;35.556;2023-06-19T11:18:06;2.67;;;1.15;;
73337;SDS011;61575;49.908;35.556;2023-06-19T11:21:08;3.47;;;1.38;;
73337;SDS011;61575;49.908;35.556;2023-06-19T11:24:11;3.13;;;1.30;;
73337;SDS011;61575;49.908;35.556;2023-06-19T11:27:21;3.30;;;1.20;;
73337;SDS011;61575;49.908;35.556;2023-06-19T11:30:32;2.10;;;1.10;;
73337;SDS011;61575;49.908;35.556;2023-06-19T11:33:35;2.63;;;1.10;;
73337;SDS011;61575;49.908;35.556;2023-06-19T11:36:39;2.63;;;1.27;;
73337;SDS011;61575;49.908;35.556;2023-06-19T11:39:46;2.33;;;1.08;;
73337;SDS011;61575;49.908;35.556;2023-06-19T11:42:48;4.18;;;1.27;;
73337;SDS011;61575;49.908;35.556;2023-06-19T11:45:53;2.88;;;1.08;;
73337;SDS011;61575;49.908;35.556;2023-06-19T11:49:16;2.60;;;1.20;;
73337;SDS011;61575;49.908;35.556;2023-06-19T11:52:21;2.70;;;1.20;;
73337;SDS011;61575;49.908;35.556;2023-06-19T11:55:23;2.28;;;1.00;;
73337;SDS011;61575;49.908;35.556;2023-06-19T11:58:25;3.13;;;1.20;;
73337;SDS011;61575;49.908;35.556;2023-06-19T12:01:27;2.95;;;1.17;;
73337;SDS011;61575;49.908;35.556;2023-06-19T12:04:28;2.83;;;1.30;;
73337;SDS011;61575;49.908;35.556;2023-06-19T12:07:31;5.40;;;1.63;;
73337;SDS011;61575;49.908;35.556;2023-06-19T12:10:33;3.38;;;1.10;;
73337;SDS011;61575;49.908;35.556;2023-06-19T12:13:36;2.60;;;1.02;;
73337;SDS011;61575;49.908;35.556;2023-06-19T12:16:38;2.25;;;1.00;;
73337;SDS011;61575;49.908;35.556;2023-06-19T12:19:40;3.70;;;1.20;;
73337;SDS011;61575;49.908;35.556;2023-06-19T12:22:42;2.88;;;1.20;;
73337;SDS011;61575;49.908;35.556;2023-06-19T12:25:44;2.45;;;1.10;;
73337;SDS011;61575;49.908;35.556;2023-06-19T12:28:46;9.25;;;1.70;;
73337;SDS011;61575;49.908;35.556;2023-06-19T12:31:48;3.15;;;1.10;;
73337;SDS011;61575;49.908;35.556;2023-06-19T12:34:50;3.83;;;1.45;;
73337;SDS011;61575;49.908;35.556;2023-06-19T12:37:55;3.28;;;1.40;;
73337;SDS011;61575;49.908;35.556;2023-06-19T12:40:57;2.65;;;1.20;;
73337;SDS011;61575;49.908;35.556;2023-06-19T12:43:59;2.17;;;1.00;;
73337;SDS011;61575;49.908;35.556;2023-06-19T12:47:01;2.40;;;1.10;;
73337;SDS011;61575;49.908;35.556;2023-06-19T12:50:03;2.22;;;1.15;;
73337;SDS011;61575;49.908;35.556;2023-06-19T12:53:05;4.82;;;1.40;;
73337;SDS011;61575;49.908;35.556;2023-06-19T12:56:07;2.55;;;1.17;;
73337;SDS011;61575;49.908;35.556;2023-06-19T12:59:14;4.47;;;1.38;;
73337;SDS011;61575;49.908;35.556;2023-06-19T13:02:16;2.47;;;1.20;;
73337;SDS011;61575;49.908;35.556;2023-06-19T13:05:18;2.80;;;1.27;;
73337;SDS011;61575;49.908;35.556;2023-06-19T13:08:20;2.58;;;1.10;;
73337;SDS011;61575;49.908;35.556;2023-06-19T13:11:22;2.42;;;1.02;;
73337;SDS011;61575;49.908;35.556;2023-06-19T13:14:24;3.40;;;0.98;;
73337;SDS011;61575;49.908;35.556;2023-06-19T13:17:26;2.97;;;1.40;;
73337;SDS011;61575;49.908;35.556;2023-06-19T13:20:28;1.88;;;1.02;;
73337;SDS011;61575;49.908;35.556;2023-06-19T13:23:30;2.47;;;1.17;;
73337;SDS011;61575;49.908;35.556;2023-06-19T13:26:32;4.78;;;1.17;;
73337;SDS011;61575;49.908;35.556;2023-06-19T13:29:34;3.05;;;1.10;;
73337;SDS011;61575;49.908;35.556;2023-06-19T13:32:36;3.28;;;1.10;;
73337;SDS011;61575;49.908;35.556;2023-06-19T13:35:39;6.15;;;1.30;;
73337;SDS011;61575;49.908;35.556;2023-06-19T13:38:41;4.75;;;1.58;;
73337;SDS011;61575;49.908;35.556;2023-06-19T13:41:46;2.90;;;1.20;;
73337;SDS011;61575;49.908;35.556;2023-06-19T13:44:48;3.90;;;1.23;;
73337;SDS011;61575;49.908;35.556;2023-06-19T13:47:52;2.58;;;1.20;;
73337;SDS011;61575;49.908;35.556;2023-06-19T13:50:53;2.65;;;1.20;;
73337;SDS011;61575;49.908;35.556;2023-06-19T13:53:55;2.58;;;1.10;;
73337;SDS011;61575;49.908;35.556;2023-06-19T13:56:59;2.22;;;1.05;;
73337;SDS011;61575;49.908;35.556;2023-06-19T14:00:18;4.13;;;1.25;;
73337;SDS011;61575;49.908;35.556;2023-06-19T14:03:21;2.83;;;1.45;;
73337;SDS011;61575;49.908;35.556;2023-06-19T14:06:26;2.40;;;1.20;;
73337;SDS011;61575;49.908;35.556;2023-06-19T14:09:28;2.17;;;1.05;;
73337;SDS011;61575;49.908;35.556;2023-06-19T14:12:29;2.90;;;1.30;;
73337;SDS011;61575;49.908;35.556;2023-06-19T14:15:32;5.47;;;1.38;;
73337;SDS011;61575;49.908;35.556;2023-06-19T14:18:34;3.30;;;1.33;;
73337;SDS011;61575;49.908;35.556;2023-06-19T14:21:38;2.65;;;1.10;;
73337;SDS011;61575;49.908;35.556;2023-06-19T14:24:40;3.70;;;1.30;;
73337;SDS011;61575;49.908;35.556;2023-06-19T14:27:42;4.15;;;1.55;;
73337;SDS011;61575;49.908;35.556;2023-06-19T14:30:44;2.20;;;1.17;;
73337;SDS011;61575;49.908;35.556;2023-06-19T14:33:46;3.10;;;1.23;;
73337;SDS011;61575;49.908;35.556;2023-06-19T14:36:48;2.85;;;1.33;;
73337;SDS011;61575;49.908;35.556;2023-06-19T14:39:50;2.67;;;1.23;;
73337;SDS011;61575;49.908;35.556;2023-06-19T14:42:51;6.40;;;1.35;;
73337;SDS011;61575;49.908;35.556;2023-06-19T14:45:53;3.10;;;1.30;;
73337;SDS011;61575;49.908;35.556;2023-06-19T14:48:55;2.67;;;1.20;;
73337;SDS011;61575;49.908;35.556;2023-06-19T14:52:00;2.17;;;1.02;;
73337;SDS011;61575;49.908;35.556;2023-06-19T14:55:02;4.57;;;1.45;;
73337;SDS011;61575;49.908;35.556;2023-06-19T14:58:05;2.15;;;0.95;;
73337;SDS011;61575;49.908;35.556;2023-06-19T15:01:07;3.10;;;1.40;;
73337;SDS011;61575;49.908;35.556;2023-06-19T15:04:09;2.42;;;1.13;;
73337;SDS011;61575;49.908;35.556;2023-06-19T15:07:11;2.55;;;1.13;;
73337;SDS011;61575;49.908;35.556;2023-06-19T15:10:13;3.40;;;1.30;;
73337;SDS011;61575;49.908;35.556;2023-06-19T15:13:15;2.88;;;1.30;;
73337;SDS011;61575;49.908;35.556;2023-06-19T15:16:19;2.33;;;1.00;;
73337;SDS011;61575;49.908;35.556;2023-06-19T15:19:23;3.20;;;1.33;;
73337;SDS011;61575;49.908;35.556;2023-06-19T15:22:25;3.20;;;1.30;;
73337;SDS011;61575;49.908;35.556;2023-06-19T15:25:28;3.70;;;1.50;;
73337;SDS011;61575;49.908;35.556;2023-06-19T15:28:32;2.63;;;1.15;;
73337;SDS011;61575;49.908;35.556;2023-06-19T15:31:34;2.95;;;1.20;;
73337;SDS011;61575;49.908;35.556;2023-06-19T15:34:37;3.38;;;1.30;;
73337;SDS011;61575;49.908;35.556;2023-06-19T15:37:40;5.85;;;1.60;;
73337;SDS011;61575;49.908;35.556;2023-06-19T15:40:41;4.13;;;1.20;;
73337;SDS011;61575;49.908;35.556;2023-06-19T15:43:43;5.20;;;1.20;;
73337;SDS011;61575;49.908;35.556;2023-06-19T15:46:45;3.22;;;1.30;;
73337;SDS011;61575;49.908;35.556;2023-06-19T15:49:47;4.22;;;1.50;;
73337;SDS011;61575;49.908;35.556;2023-06-19T15:52:49;3.70;;;1.30;;
73337;SDS011;61575;49.908;35.556;2023-06-19T15:55:51;2.65;;;1.10;;
73337;SDS011;61575;49.908;35.556;2023-06-19T15:58:53;3.55;;;1.10;;
73337;SDS011;61575;49.908;35.556;2023-06-19T16:01:55;3.05;;;1.00;;
73337;SDS011;61575;49.908;35.556;2023-06-19T16:04:57;2.47;;;1.20;;
73337;SDS011;61575;49.908;35.556;2023-06-19T16:07:59;2.80;;;1.10;;
73337;SDS011;61575;49.908;35.556;2023-06-19T16:11:01;2.60;;;1.30;;
73337;SDS011;61575;49.908;35.556;2023-06-19T16:14:06;2.55;;;1.13;;
73337;SDS011;61575;49.908;35.556;2023-06-19T16:17:08;3.40;;;1.30;;
73337;SDS011;61575;49.908;35.556;2023-06-19T16:20:11;3.30;;;1.30;;
73337;SDS011;61575;49.908;35.556;2023-06-19T16:26:15;3.30;;;1.20;;
73337;SDS011;61575;49.908;35.556;2023-06-19T16:29:18;3.80;;;1.50;;
73337;SDS011;61575;49.908;35.556;2023-06-19T16:32:19;3.72;;;1.25;;
73337;SDS011;61575;49.908;35.556;2023-06-19T16:35:22;3.15;;;1.20;;
73337;SDS011;61575;49.908;35.556;2023-06-19T16:38:24;2.33;;;1.00;;
73337;SDS011;61575;49.908;35.556;2023-06-19T16:44:27;2.92;;;1.30;;
73337;SDS011;61575;49.908;35.556;2023-06-19T16:50:31;3.05;;;1.25;;
73337;SDS011;61575;49.908;35.556;2023-06-19T16:53:33;3.45;;;1.20;;
73337;SDS011;61575;49.908;35.556;2023-06-19T16:56:35;2.50;;;1.10;;
73337;SDS011;61575;49.908;35.556;2023-06-19T17:02:39;3.60;;;1.30;;
73337;SDS011;61575;49.908;35.556;2023-06-19T17:05:41;2.97;;;1.23;;
73337;SDS011;61575;49.908;35.556;2023-06-19T17:11:45;2.90;;;1.30;;
73337;SDS011;61575;49.908;35.556;2023-06-19T17:14:47;4.07;;;1.52;;
73337;SDS011;61575;49.908;35.556;2023-06-19T17:17:49;3.67;;;1.48;;
73337;SDS011;61575;49.908;35.556;2023-06-19T17:23:52;4.45;;;1.42;;
73337;SDS011;61575;49.908;35.556;2023-06-19T17:26:56;4.30;;;1.58;;
73337;SDS011;61575;49.908;35.556;2023-06-19T17:29:59;6.68;;;1.90;;
73337;SDS011;61575;49.908;35.556;2023-06-19T17:33:02;7.78;;;1.88;;
73337;SDS011;61575;49.908;35.556;2023-06-19T17:36:05;6.78;;;2.20;;
73337;SDS011;61575;49.908;35.556;2023-06-19T17:39:11;10.68;;;2.85;;
73337;SDS011;61575;49.908;35.556;2023-06-19T17:42:13;7.70;;;2.30;;
73337;SDS011;61575;49.908;35.556;2023-06-19T17:45:15;6.65;;;2.22;;
73337;SDS011;61575;49.908;35.556;2023-06-19T17:48:16;14.43;;;3.78;;
73337;SDS011;61575;49.908;35.556;2023-06-19T17:51:18;9.13;;;3.15;;
73337;SDS011;61575;49.908;35.556;2023-06-19T17:54:20;9.18;;;3.55;;
73337;SDS011;61575;49.908;35.556;2023-06-19T17:57:23;11.25;;;3.10;;
73337;SDS011;61575;49.908;35.556;2023-06-19T18:00:25;16.95;;;3.85;;
73337;SDS011;61575;49.908;35.556;2023-06-19T18:03:29;12.65;;;4.05;;
73337;SDS011;61575;49.908;35.556;2023-06-19T18:06:31;13.63;;;4.22;;
73337;SDS011;61575;49.908;35.556;2023-06-19T18:09:33;16.00;;;5.25;;
73337;SDS011;61575;49.908;35.556;2023-06-19T18:12:35;17.05;;;6.50;;
73337;SDS011;61575;49.908;35.556;2023-06-19T18:18:39;21.53;;;8.10;;
73337;SDS011;61575;49.908;35.556;2023-06-19T18:21:41;22.27;;;7.57;;
73337;SDS011;61575;49.908;35.556;2023-06-19T18:24:42;23.50;;;7.95;;
73337;SDS011;61575;49.908;35.556;2023-06-19T18:27:44;18.02;;;7.80;;
73337;SDS011;61575;49.908;35.556;2023-06-19T18:30:46;14.57;;;6.50;;
73337;SDS011;61575;49.908;35.556;2023-06-19T18:33:48;21.20;;;7.20;;
73337;SDS011;61575;49.908;35.556;2023-06-19T18:36:50;15.25;;;6.13;;
73337;SDS011;61575;49.908;35.556;2023-06-19T18:39:53;16.65;;;6.05;;
73337;SDS011;61575;49.908;35.556;2023-06-19T18:42:55;16.58;;;6.22;;
73337;SDS011;61575;49.908;35.556;2023-06-19T18:45:57;18.55;;;6.60;;
73337;SDS011;61575;49.908;35.556;2023-06-19T18:48:59;20.02;;;6.75;;
73337;SDS011;61575;49.908;35.556;2023-06-19T18:52:01;15.73;;;5.70;;
73337;SDS011;61575;49.908;35.556;2023-06-19T18:55:03;12.65;;;5.55;;
73337;SDS011;61575;49.908;35.556;2023-06-19T18:58:05;11.52;;;4.32;;
73337;SDS011;61575;49.908;35.556;2023-06-19T19:01:07;9.95;;;4.20;;
73337;SDS011;61575;49.908;35.556;2023-06-19T19:04:10;11.57;;;4.43;;
73337;SDS011;61575;49.908;35.556;2023-06-19T19:07:12;10.50;;;4.05;;